Louisville, KY (40223)

3:17 PM EDT on July 27, 2016 (GMT -0400)
Owl Creek Country Club | | Change Station

Elev 730 ft 38.28 °N, 85.53 °W | Updated 12 minutes ago

Clear
Clear
89.5 °F
Feels Like 103 °F
N
0.0
Wind Variable Wind from NNW
Gusts 4.0 mph

Today
High -- | Low -- °F
--% Chance of Precip.
Yesterday
High -- | Low -- °F
Precip. -- in
Pressure 29.96 in
Visibility 10.0 miles
Clouds Clear
Heat Index 103 °F
Dew Point 77 °F
Humidity 67%
Rainfall 0.00 in
Snow Depth Not available.
6:40 AM 8:55 PM
Last Quarter, 40% visible
METAR KLOU 271853Z VRB06KT 10SM CLR 33/21 A2998 RMK AO2 LTG DSNT W AND NW RAE1756 SLP144 P0000 T03330211
Pressure 29.96 in
Visibility 10.0 miles
Clouds Clear
Heat Index 103 °F
Dew Point 77 °F
Humidity 67%
Rainfall 0.00 in
Snow Depth Not available.
6:40 AM 8:55 PM
Last Quarter, 40% visible
METAR KLOU 271853Z VRB06KT 10SM CLR 33/21 A2998 RMK AO2 LTG DSNT W AND NW RAE1756 SLP144 P0000 T03330211

10-Day Weather Forecast

Almanac

Astronomy

Jul. 27, 2016 Rise Set
Actual Time
Civil Twilight
Nautical Twilight
Astronomical Twilight
Moon
Length of Visible Light
Length of Day
Tomorrow will be .
, % of the Moon is Illuminated

Today's Extremes

State Highs State Lows

Community

WunderPhotos

Upload Photos

1,927,909 photos uploaded!

WunderBlog® & News

Nearby

Air Quality

  Air Quality AQ Index Pollutant
Not available.

Snow Depth

Station Depth Elevation

Earthquake Activity

City Distance Mag. Time & Date
Minimum magnitude displayed is 2.5.

Coastal Water Temperatures

Place Temperature

Stations

Nearby Weather Stations

Station Location Temp. Windchill Dew Point Humidity Wind Precip. Elev Updated Type
                   

Watches & Warnings

There are currently no watches in effect.